Alvarado, Texas
Current Conditions -  °F | °C
As of 8:35 PM on Friday 21 Nov 2014 (Local Time) from KFWS Reporting Station
Overcast Overcast  
Wind Chill: 66°   Ceiling: 700
Heat Index: 66°   Visibility: 7mi
Dew Point: 62°   Wind: 12mph
Humidity: 89%   Direction: 150°SSE
Pressure: 30.07"   Gusts: NA
Location:  32.41°N, 97.21°W
Report Text: KFWS 220235Z AUTO 15010KT 7SM OVC007 19/17 A3007 RMK AO2 T01870168
Loading
Personal Weather Stations






























Interactive Weather Map New forecast layout! Learn more

10-Day Weather Forecast

Advertisements
Track Severe Weather on mobile